Adak Island, Alaska
Current Conditions -  °F | °C
As of 11:36 AM on Monday 26 Jan 2015 (Local Time) from PADK Reporting Station
Overcast Overcast  
Wind Chill: -5°   Ceiling: 1600
Heat Index:   Visibility: 4mi
Dew Point: -2°   Wind: 24mph
Humidity: 75%   Direction: 20°NNE
Pressure: 29.4"   Gusts: 32mph
Location:  51.88°N, 176.65°W
Report Text: PADK 262036Z AUTO 02021G28KT 4SM BKN016 BKN021 OVC028 02/M02 A2940 RMK AO1
Loading
Personal Weather Stations






























Interactive Weather Map New forecast layout! Learn more

10-Day Weather Forecast

Advertisements
Track Severe Weather on mobile